Time;durP1;ratioP1;P1;durP2;ratioP2;P2;SDS_P1;SDS_P2;PMS_P1;PMS_P2;Temp;Humidity;BMP_temperature;BMP_pressure;BME280_temperature;BME280_humidity;BME280_pressure;Samples;Min_cycle;Max_cycle;Signal;HPM_P1;HPM_P2
2023/04/02 00:00:09;;;;;;;;;12.00;12.00;;;;;13.90;58.67;100717.63;2043592;28;46083;-61
2023/04/02 00:01:22;;;;;;;;;10.80;10.80;;;;;13.89;58.73;100710.53;2043383;28;46826;-59
2023/04/02 00:02:23;;;;;;;;;10.20;10.20;;;;;13.90;58.90;100716.75;2042876;28;47138;-60
2023/04/02 00:03:23;;;;;;;;;16.75;14.00;;;;;13.90;58.72;100716.75;2046578;28;46494;-62
2023/04/02 00:04:25;;;;;;;;;11.33;9.67;;;;;13.90;58.73;100722.09;2043814;28;46233;-59
2023/04/02 00:05:29;;;;;;;;;12.75;12.75;;;;;13.91;58.77;100726.50;2049956;28;46990;-61
2023/04/02 00:06:31;;;;;;;;;14.60;14.60;;;;;13.91;58.52;100713.16;2078161;28;46700;-63
2023/04/02 00:07:32;;;;;;;;;8.50;7.75;;;;;13.90;58.38;100712.28;2079062;28;46760;-61
2023/04/02 00:08:39;;;;;;;;;8.75;8.75;;;;;13.90;58.40;100724.75;2077894;28;46853;-60
2023/04/02 00:09:40;;;;;;;;;10.00;9.75;;;;;13.90;58.40;100728.28;2075771;28;46607;-61
2023/04/02 00:10:58;;;;;;;;;9.75;9.75;;;;;13.90;58.77;100722.94;2072725;28;46761;-62
2023/04/02 00:12:14;;;;;;;;;5.50;5.50;;;;;13.90;58.72;100719.41;2097110;28;46688;-61
2023/04/02 00:13:17;;;;;;;;;5.00;5.00;;;;;13.90;58.38;100722.94;2106577;27;46740;-60
2023/04/02 00:14:21;;;;;;;;;7.75;6.50;;;;;13.90;58.48;100730.09;2105244;27;45154;-60
2023/04/02 00:15:22;;;;;;;;;5.50;5.50;;;;;13.88;58.23;100731.94;2106322;27;46067;-60
2023/04/02 00:16:23;;;;;;;;;7.00;6.00;;;;;13.86;58.34;100729.31;2113681;27;46372;-60
2023/04/02 00:17:24;;;;;;;;;7.25;7.25;;;;;13.86;58.44;100726.66;2110531;27;46956;-59
2023/04/02 00:18:25;;;;;;;;;5.50;5.50;;;;;13.86;58.50;100724.00;2110811;27;46520;-60
2023/04/02 00:19:47;;;;;;;;;10.75;7.25;;;;;13.87;58.55;100725.72;2112836;27;46358;-60
2023/04/02 00:20:55;;;;;;;;;6.25;5.50;;;;;13.88;58.75;100734.59;2105914;27;46378;-60
2023/04/02 00:21:56;;;;;;;;;6.25;6.25;;;;;13.87;58.75;100733.75;2105782;27;46927;-60
2023/04/02 00:22:57;;;;;;;;;4.75;4.75;;;;;13.88;58.90;100734.59;2104399;28;46578;-60
2023/04/02 00:24:09;;;;;;;;;5.33;5.33;;;;;13.88;59.01;100729.28;2101074;28;47009;-60
2023/04/02 00:25:12;;;;;;;;;6.75;6.75;;;;;13.88;58.77;100738.16;2109927;27;46667;-64
2023/04/02 00:26:29;;;;;;;;;4.75;4.75;;;;;13.87;58.56;100730.19;2113467;27;46215;-61
2023/04/02 00:27:31;;;;;;;;;4.25;4.25;;;;;13.87;58.64;100739.06;2112918;27;47027;-61
2023/04/02 00:28:31;;;;;;;;;5.25;5.25;;;;;13.85;58.69;100738.25;2110197;27;47082;-61
2023/04/02 00:29:31;;;;;;;;;6.00;6.00;;;;;13.86;58.88;100739.13;2112511;27;46645;-60
2023/04/02 00:30:32;;;;;;;;;5.00;4.67;;;;;13.85;58.93;100732.94;2111619;27;46511;-60
2023/04/02 00:31:36;;;;;;;;;6.00;5.00;;;;;13.86;58.81;100741.81;2111809;27;46937;-61
2023/04/02 00:32:36;;;;;;;;;5.50;5.50;;;;;13.86;59.12;100750.66;2105097;28;46385;-61
2023/04/02 00:33:37;;;;;;;;;5.00;5.00;;;;;13.84;58.88;100737.34;2109819;27;46329;-61
2023/04/02 00:34:38;;;;;;;;;5.00;5.00;;;;;13.83;58.73;100750.75;2111403;27;46892;-59
2023/04/02 00:35:39;;;;;;;;;7.00;7.00;;;;;13.82;58.56;100741.00;2104335;28;46505;-59
2023/04/02 00:36:40;;;;;;;;;5.00;5.00;;;;;13.83;58.63;100750.75;2102447;28;46740;-60
2023/04/02 00:37:41;;;;;;;;;4.25;4.25;;;;;13.82;58.83;100751.69;2113398;27;46371;-62
2023/04/02 00:38:42;;;;;;;;;8.67;7.00;;;;;13.81;59.02;100747.28;2112348;27;46587;-60
2023/04/02 00:39:43;;;;;;;;;6.50;4.75;;;;;13.81;59.02;100747.28;2111642;27;46768;-61
2023/04/02 00:40:45;;;;;;;;;8.67;8.00;;;;;13.81;58.92;100752.59;2113515;27;45857;-60
2023/04/02 00:41:46;;;;;;;;;4.75;4.75;;;;;13.79;58.86;100750.00;2111757;27;46775;-60
2023/04/02 00:42:48;;;;;;;;;4.33;4.33;;;;;13.77;58.89;100742.97;2102420;28;46754;-61
2023/04/02 00:43:50;;;;;;;;;4.00;4.00;;;;;13.77;59.36;100749.19;2104641;27;46875;-61
2023/04/02 00:44:53;;;;;;;;;2.75;2.50;;;;;13.77;59.22;100749.19;2111804;27;46716;-60
2023/04/02 00:45:56;;;;;;;;;6.00;6.00;;;;;13.76;59.14;100758.09;2110983;27;46611;-62
2023/04/02 00:47:03;;;;;;;;;5.00;5.00;;;;;13.75;59.42;100743.03;2112670;27;46411;-61
2023/04/02 00:48:21;;;;;;;;;7.50;6.00;;;;;13.73;59.53;100749.34;2112859;27;45642;-59
2023/04/02 00:49:41;;;;;;;;;4.25;4.25;;;;;13.72;59.10;100761.81;2110571;27;46428;-61
2023/04/02 00:50:43;;;;;;;;;3.00;3.00;;;;;13.71;59.18;100754.72;2110520;27;46753;-60
2023/04/02 00:51:52;;;;;;;;;5.00;5.00;;;;;13.71;59.27;100756.50;2112440;27;46930;-62
2023/04/02 00:52:55;;;;;;;;;4.00;4.00;;;;;13.70;59.44;100757.44;2110821;27;46431;-60
2023/04/02 00:54:00;;;;;;;;;5.25;5.25;;;;;13.69;59.46;100761.88;2111402;27;45579;-60
2023/04/02 00:55:14;;;;;;;;;4.75;4.75;;;;;13.70;59.58;100762.75;2095288;28;46859;-62
2023/04/02 00:56:29;;;;;;;;;5.00;5.00;;;;;13.70;59.94;100754.75;2110090;27;45679;-62
2023/04/02 00:57:32;;;;;;;;;6.50;5.25;;;;;13.69;59.75;100750.34;2108288;27;47064;-62
2023/04/02 00:58:36;;;;;;;;;5.25;5.00;;;;;13.68;59.68;100754.81;2096251;28;46100;-60
2023/04/02 00:59:49;;;;;;;;;3.75;3.75;;;;;13.68;59.54;100759.28;2107113;27;46682;-59
2023/04/02 01:00:51;;;;;;;;;4.75;4.25;;;;;13.69;59.71;100767.22;2112262;27;47390;-61
2023/04/02 01:02:00;;;;;;;;;7.50;4.75;;;;;13.69;59.63;100767.22;2112688;27;46519;-61
2023/04/02 01:03:15;;;;;;;;;5.50;5.50;;;;;13.69;59.63;100767.22;2109375;27;47004;-61
2023/04/02 01:04:33;;;;;;;;;5.00;4.00;;;;;13.69;59.58;100756.56;2108714;27;46503;-60
2023/04/02 01:05:33;;;;;;;;;8.00;8.00;;;;;13.69;59.65;100767.22;2082677;28;46900;-61
2023/04/02 01:06:37;;;;;;;;;9.00;8.00;;;;;13.66;60.12;100767.34;2085797;28;46433;-60
2023/04/02 01:07:58;;;;;;;;;6.75;6.75;;;;;13.65;60.02;100773.59;2112329;27;45647;-60
2023/04/02 01:09:04;;;;;;;;;5.75;5.75;;;;;13.66;59.90;100770.00;2108592;27;45753;-60
2023/04/02 01:10:25;;;;;;;;;5.25;5.00;;;;;13.67;59.76;100778.88;2104078;27;46553;-58
2023/04/02 01:12:02;;;;;;;;;6.50;5.75;;;;;13.66;59.95;100778.00;2095462;28;46701;-61
2023/04/02 01:13:08;;;;;;;;;4.00;4.00;;;;;13.65;59.82;100773.59;2112381;27;46556;-60
2023/04/02 01:14:35;;;;;;;;;3.75;3.75;;;;;13.64;60.18;100779.84;2104921;27;46369;-61
2023/04/02 01:15:47;;;;;;;;;5.00;5.00;;;;;13.64;60.31;100776.31;2110559;27;45612;-61
2023/04/02 01:16:59;;;;;;;;;6.50;6.50;;;;;13.61;60.11;100779.97;2109896;27;46904;-60
2023/04/02 01:18:12;;;;;;;;;6.75;6.75;;;;;13.59;60.35;100780.91;2112802;27;46520;-59
2023/04/02 01:19:34;;;;;;;;;6.00;6.00;;;;;13.60;60.10;100780.03;2109764;27;46722;-61
2023/04/02 01:20:46;;;;;;;;;6.00;5.00;;;;;13.58;60.27;100774.72;2106634;27;46977;-61
2023/04/02 01:22:29;;;;;;;;;6.75;6.75;;;;;13.58;60.68;100777.38;2104400;27;46943;-60
2023/04/02 01:23:34;;;;;;;;;3.75;3.75;;;;;13.59;60.25;100791.59;2109770;27;46494;-62
2023/04/02 01:24:37;;;;;;;;;6.50;6.50;;;;;13.58;60.35;100785.38;2112447;27;45661;-60
2023/04/02 01:25:47;;;;;;;;;6.50;6.50;;;;;13.58;60.40;100781.84;2110343;27;46532;-61
2023/04/02 01:27:20;;;;;;;;;6.25;6.25;;;;;13.57;60.27;100780.97;2110355;27;46211;-62
2023/04/02 01:28:39;;;;;;;;;7.25;6.00;;;;;13.55;60.42;100782.81;2110925;27;46730;-60
2023/04/02 01:29:45;;;;;;;;;7.75;7.75;;;;;13.54;60.56;100783.75;2111377;27;46261;-61
2023/04/02 01:30:51;;;;;;;;;5.75;5.75;;;;;13.53;60.57;100779.34;2112332;27;46685;-60
2023/04/02 01:31:54;;;;;;;;;6.50;5.75;;;;;13.53;60.64;100784.66;2110896;27;46138;-60
2023/04/02 01:32:55;;;;;;;;;5.00;5.00;;;;;13.53;60.90;100790.00;2112146;27;45780;-60
2023/04/02 01:33:55;;;;;;;;;6.50;6.50;;;;;13.52;60.80;100786.47;2111160;27;45547;-61
2023/04/02 01:34:57;;;;;;;;;7.67;5.67;;;;;13.52;60.71;100783.78;2111765;27;46276;-60
2023/04/02 01:36:25;;;;;;;;;6.00;6.00;;;;;13.52;60.27;100780.25;2111959;27;46602;-60
2023/04/02 01:37:35;;;;;;;;;4.75;4.25;;;;;13.50;60.61;100790.09;2095251;28;46526;-61
2023/04/02 01:38:47;;;;;;;;;7.50;7.00;;;;;13.48;60.60;100792.81;2108488;27;47249;-60
2023/04/02 01:40:17;;;;;;;;;7.50;6.00;;;;;13.47;60.70;100795.53;2112594;27;46711;-58
2023/04/02 01:41:46;;;;;;;;;7.00;6.50;;;;;13.47;60.43;100787.56;2112333;27;46782;-61
2023/04/02 01:43:14;;;;;;;;;5.75;5.50;;;;;13.48;60.62;100786.63;2084810;28;46485;-61
2023/04/02 01:44:32;;;;;;;;;5.25;5.25;;;;;13.47;60.64;100790.22;2078369;28;46244;-62
2023/04/02 01:45:33;;;;;;;;;5.00;5.00;;;;;13.47;60.82;100792.88;2061850;28;1255475;-60
2023/04/02 01:46:39;;;;;;;;;6.00;5.00;;;;;13.46;60.65;100791.09;2083810;28;44999;-59
2023/04/02 01:47:41;;;;;;;;;4.50;4.00;;;;;13.46;61.05;100801.78;2085755;28;45027;-60
2023/04/02 01:48:42;;;;;;;;;6.50;4.25;;;;;13.44;60.73;100801.81;2070498;28;44891;-60
2023/04/02 01:49:44;;;;;;;;;3.33;3.33;;;;;13.44;61.07;100804.50;2070034;28;44901;-60
2023/04/02 01:50:48;;;;;;;;;5.75;5.00;;;;;13.43;60.92;100802.75;2078726;28;44856;-62
2023/04/02 01:51:52;;;;;;;;;4.00;4.00;;;;;13.43;61.21;100800.09;2078662;28;44843;-60
2023/04/02 01:52:57;;;;;;;;;8.50;6.50;;;;;13.43;61.21;100796.53;2082250;28;44985;-60
2023/04/02 01:54:00;;;;;;;;;5.25;5.25;;;;;13.43;61.07;100799.22;2084654;28;44854;-59
2023/04/02 01:55:02;;;;;;;;;3.75;3.75;;;;;13.43;61.44;100797.41;2078947;28;45110;-59
2023/04/02 01:56:03;;;;;;;;;4.00;4.00;;;;;13.44;61.36;100803.63;2081571;28;44916;-60
2023/04/02 01:57:04;;;;;;;;;3.75;3.25;;;;;13.44;61.53;100804.50;2087005;28;45098;-60
2023/04/02 01:58:05;;;;;;;;;2.50;2.50;;;;;13.43;61.18;100796.53;2080420;28;45081;-61
2023/04/02 01:59:06;;;;;;;;;4.00;4.00;;;;;13.43;61.02;100799.22;2078257;28;44902;-60
2023/04/02 02:00:12;;;;;;;;;4.00;4.00;;;;;13.41;61.11;100799.25;2086201;28;44861;-60
2023/04/02 02:01:17;;;;;;;;;2.75;2.75;;;;;13.43;61.33;100802.75;2074588;28;44974;-61
2023/04/02 02:02:20;;;;;;;;;3.25;3.25;;;;;13.43;61.47;100808.06;2077262;28;45008;-60
2023/04/02 02:03:22;;;;;;;;;3.00;3.00;;;;;13.43;61.32;100796.53;2078367;28;44853;-61
2023/04/02 02:04:22;;;;;;;;;3.25;3.00;;;;;13.42;60.95;100805.47;2081408;28;44943;-61
2023/04/02 02:05:23;;;;;;;;;3.00;3.00;;;;;13.42;60.98;100806.34;2086220;28;44871;-59
2023/04/02 02:06:23;;;;;;;;;4.00;4.00;;;;;13.41;60.94;100806.38;2085231;28;44845;-60
2023/04/02 02:07:24;;;;;;;;;4.33;3.33;;;;;13.40;60.98;100804.66;2083252;28;44858;-61
2023/04/02 02:08:38;;;;;;;;;2.50;2.50;;;;;13.40;61.24;100805.53;2086580;28;44981;-61
2023/04/02 02:09:39;;;;;;;;;3.25;3.25;;;;;13.40;61.06;100812.66;2082896;28;44843;-60
2023/04/02 02:10:39;;;;;;;;;3.50;3.50;;;;;13.39;61.28;100808.25;2080084;28;44940;-60
2023/04/02 02:11:40;;;;;;;;;3.00;2.33;;;;;13.40;61.07;100813.50;2086902;28;44902;-59
2023/04/02 02:12:43;;;;;;;;;2.25;2.25;;;;;13.40;61.38;100809.97;2085722;28;45020;-62
2023/04/02 02:13:56;;;;;;;;;2.50;2.50;;;;;13.40;61.32;100812.66;2082717;28;44871;-61
2023/04/02 02:14:56;;;;;;;;;2.00;2.00;;;;;13.37;61.08;100808.28;2086675;28;44945;-60
2023/04/02 02:15:58;;;;;;;;;3.00;3.00;;;;;13.39;61.32;100813.56;2084660;28;44929;-61
2023/04/02 02:17:01;;;;;;;;;3.00;3.00;;;;;13.38;61.17;100809.16;2084554;28;44867;-61
2023/04/02 02:18:05;;;;;;;;;3.00;2.25;;;;;13.38;61.42;100820.69;2086919;28;44911;-61
2023/04/02 02:19:12;;;;;;;;;2.00;2.00;;;;;13.38;61.22;100814.50;2086346;28;45131;-60
2023/04/02 02:20:13;;;;;;;;;2.00;2.00;;;;;13.37;61.21;100813.63;2097152;27;44905;-60
2023/04/02 02:21:34;;;;;;;;;0.00;0.00;;;;;13.38;61.39;100819.81;2095564;28;44953;-60
2023/04/02 02:22:38;;;;;;;;;3.00;2.25;;;;;13.40;61.21;100821.50;2105466;27;44884;-60
2023/04/02 02:23:38;;;;;;;;;3.25;3.25;;;;;13.40;61.40;100828.63;2110577;27;44869;-60
2023/04/02 02:24:41;;;;;;;;;1.00;1.00;;;;;13.38;61.34;100823.34;2112833;27;45001;-60
2023/04/02 02:25:41;;;;;;;;;1.00;1.00;;;;;13.37;61.83;100828.75;2110778;27;45275;-61
2023/04/02 02:26:46;;;;;;;;;3.67;3.67;;;;;13.36;61.89;100830.53;2112838;27;44994;-59
2023/04/02 02:27:49;;;;;;;;;2.00;2.00;;;;;13.36;62.02;100837.66;2112736;27;44967;-60
2023/04/02 02:28:54;;;;;;;;;2.00;2.00;;;;;13.35;62.01;100831.47;2112614;27;45070;-60
2023/04/02 02:29:59;;;;;;;;;4.00;4.00;;;;;13.34;62.07;100835.03;2110456;27;44878;-60
2023/04/02 02:31:02;;;;;;;;;2.00;2.00;;;;;13.33;62.08;100837.72;2095195;28;44834;-61
2023/04/02 02:32:06;;;;;;;;;1.75;1.75;;;;;13.32;62.40;100841.31;2102561;27;44810;-60
2023/04/02 02:33:20;;;;;;;;;1.00;1.00;;;;;13.30;62.36;100835.16;2112848;27;45394;-60
2023/04/02 02:34:28;;;;;;;;;1.00;1.00;;;;;13.28;62.12;100843.22;2113528;27;44854;-60
2023/04/02 02:35:39;;;;;;;;;1.25;1.00;;;;;13.27;62.65;100835.28;2111519;27;45098;-60
2023/04/02 02:36:52;;;;;;;;;2.00;2.00;;;;;13.25;62.65;100848.66;2111679;27;44935;-61
2023/04/02 02:38:18;;;;;;;;;2.50;2.50;;;;;13.25;63.03;100838.88;2111142;27;44801;-60
2023/04/02 02:39:32;;;;;;;;;3.00;3.00;;;;;13.24;63.03;100844.25;2112580;27;44955;-60
2023/04/02 02:40:42;;;;;;;;;1.00;1.00;;;;;13.23;63.16;100851.38;2096018;28;44986;-59
2023/04/02 02:41:51;;;;;;;;;3.25;3.25;;;;;13.22;63.28;100848.75;2106333;27;44926;-61
2023/04/02 02:42:56;;;;;;;;;2.75;2.75;;;;;13.21;63.36;100847.88;2112751;27;45184;-60
2023/04/02 02:44:03;;;;;;;;;2.25;2.00;;;;;13.21;63.32;100854.97;2103531;28;44860;-61
2023/04/02 02:45:14;;;;;;;;;1.25;1.25;;;;;13.20;63.32;100854.09;2105249;27;45046;-62
2023/04/02 02:46:18;;;;;;;;;3.50;1.00;;;;;13.20;63.37;100859.44;2107892;27;44859;-60
2023/04/02 02:47:25;;;;;;;;;1.00;1.00;;;;;13.20;63.32;100848.78;2097112;28;45042;-60
2023/04/02 02:48:36;;;;;;;;;1.00;1.00;;;;;13.19;63.31;100859.47;2103004;28;44925;-60
2023/04/02 02:49:43;;;;;;;;;0.00;0.00;;;;;13.17;63.13;100859.50;2102353;28;45567;-61
2023/04/02 02:50:44;;;;;;;;;0.50;0.50;;;;;13.15;63.06;100858.66;2105490;28;45107;-60
2023/04/02 02:52:16;;;;;;;;;0.50;0.50;;;;;13.15;63.03;100865.78;2105344;28;44818;-59
2023/04/02 02:53:22;;;;;;;;;0.50;0.50;;;;;13.14;63.32;100864.06;2104198;28;44941;-60
2023/04/02 02:54:25;;;;;;;;;1.00;1.00;;;;;13.13;63.08;100864.97;2107214;27;44927;-62
2023/04/02 02:55:36;;;;;;;;;0.50;0.50;;;;;13.13;62.85;100863.19;2105456;28;44873;-60
2023/04/02 02:56:44;;;;;;;;;1.50;0.25;;;;;13.10;63.08;100862.41;2097401;28;44887;-59
2023/04/02 02:57:55;;;;;;;;;0.50;0.50;;;;;13.07;62.98;100865.13;2105548;27;44919;-59
2023/04/02 02:58:55;;;;;;;;;0.00;0.00;;;;;13.05;63.17;100867.84;2105092;28;44909;-59
2023/04/02 02:59:59;;;;;;;;;0.33;0.33;;;;;13.05;63.30;100874.97;2093855;28;44883;-61
2023/04/02 03:01:00;;;;;;;;;0.00;0.00;;;;;13.04;63.65;100865.25;2096853;27;44829;-59
2023/04/02 03:02:02;;;;;;;;;0.00;0.00;;;;;13.03;63.44;100872.34;2104493;28;44950;-59
2023/04/02 03:03:13;;;;;;;;;0.25;0.25;;;;;13.03;63.27;100875.03;2102873;27;44930;-60
2023/04/02 03:04:21;;;;;;;;;0.75;0.75;;;;;13.04;63.38;100870.56;2114014;27;44793;-60
2023/04/02 03:05:25;;;;;;;;;0.75;0.75;;;;;13.03;63.39;100872.34;2112622;27;44901;-61
2023/04/02 03:06:26;;;;;;;;;0.75;0.75;;;;;13.04;63.33;100868.78;2112307;27;45110;-60
2023/04/02 03:07:29;;;;;;;;;0.00;0.00;;;;;13.06;63.37;100879.38;2113220;27;44898;-62
2023/04/02 03:08:35;;;;;;;;;1.00;1.00;;;;;13.06;63.57;100877.59;2114352;27;44840;-60
2023/04/02 03:09:36;;;;;;;;;0.75;0.00;;;;;13.08;63.34;100870.41;2108135;27;45135;-60
2023/04/02 03:10:47;;;;;;;;;0.00;0.00;;;;;13.08;63.39;100872.22;2102782;27;44971;-60
2023/04/02 03:12:05;;;;;;;;;0.00;0.00;;;;;13.08;63.05;100873.09;2102471;27;44833;-60
2023/04/02 03:13:21;;;;;;;;;0.00;0.00;;;;;13.08;63.28;100874.88;2096294;28;44943;-61
2023/04/02 03:14:29;;;;;;;;;0.75;0.75;;;;;13.08;63.28;100880.22;2107147;27;44814;-61
2023/04/02 03:16:10;;;;;;;;;0.00;0.00;;;;;13.10;63.49;100886.38;2109290;27;44998;-61
2023/04/02 03:17:30;;;;;;;;;1.00;1.00;;;;;13.11;63.40;100880.13;2066904;28;44916;-60
2023/04/02 03:18:54;;;;;;;;;0.00;0.00;;;;;13.11;63.36;100880.13;2070497;28;44981;-60
2023/04/02 03:20:09;;;;;;;;;1.00;1.00;;;;;13.11;63.07;100878.34;2059684;28;44852;-59
2023/04/02 03:21:17;;;;;;;;;0.00;0.00;;;;;13.12;63.53;100882.75;2062631;28;44981;-59
2023/04/02 03:22:34;;;;;;;;;0.25;0.25;;;;;13.11;63.57;100881.00;2064493;28;44830;-60
2023/04/02 03:23:44;;;;;;;;;0.00;0.00;;;;;13.12;63.75;100879.22;2062959;28;44948;-61
2023/04/02 03:25:02;;;;;;;;;0.00;0.00;;;;;13.13;63.64;100884.50;2063351;28;44941;-60
2023/04/02 03:26:26;;;;;;;;;0.00;0.00;;;;;13.15;63.69;100881.78;2055276;28;44927;-63
2023/04/02 03:27:33;;;;;;;;;1.00;1.00;;;;;13.16;63.79;100888.84;2062479;28;44953;-62
2023/04/02 03:28:40;;;;;;;;;0.00;0.00;;;;;13.15;64.19;100893.31;2058495;28;44891;-62
2023/04/02 03:29:48;;;;;;;;;0.00;0.00;;;;;13.14;63.96;100891.56;2062909;28;45127;-61
2023/04/02 03:30:54;;;;;;;;;1.00;0.00;;;;;13.14;63.91;100894.22;2055256;28;45002;-66
2023/04/02 03:32:12;;;;;;;;;0.75;0.75;;;;;13.15;63.87;100887.97;2060756;28;44868;-61
2023/04/02 03:33:22;;;;;;;;;2.00;0.00;;;;;13.16;63.71;100899.50;2063119;28;44945;-63
2023/04/02 03:34:32;;;;;;;;;1.00;1.00;;;;;13.15;63.85;100909.31;2063594;28;44937;-61
2023/04/02 03:35:35;;;;;;;;;1.00;0.75;;;;;13.14;63.90;100904.03;2063230;28;44973;-61
2023/04/02 03:36:48;;;;;;;;;1.75;1.75;;;;;13.11;64.11;100902.31;2063168;28;44937;-62
2023/04/02 03:37:59;;;;;;;;;1.25;1.25;;;;;13.11;63.91;100901.47;2062969;28;44938;-64
2023/04/02 03:39:32;;;;;;;;;1.00;1.00;;;;;13.09;63.87;100912.16;2071534;28;44918;-63
2023/04/02 03:40:43;;;;;;;;;1.00;1.00;;;;;13.08;64.08;100917.50;2063505;28;44910;-62
2023/04/02 03:41:49;;;;;;;;;1.00;1.00;;;;;13.06;64.12;100911.34;2062620;28;44990;-62
2023/04/02 03:42:58;;;;;;;;;1.75;1.75;;;;;13.06;64.27;100917.56;2063338;28;44954;-63
2023/04/02 03:44:06;;;;;;;;;2.00;2.00;;;;;13.05;63.95;100915.81;2063193;28;44908;-62
2023/04/02 03:45:18;;;;;;;;;2.25;2.25;;;;;13.05;64.08;100922.94;2070458;28;44875;-60
2023/04/02 03:46:35;;;;;;;;;3.00;3.00;;;;;13.04;63.75;100922.06;2057429;28;45181;-61
2023/04/02 03:47:41;;;;;;;;;1.50;1.50;;;;;13.04;63.69;100922.06;2049704;28;45001;-59
2023/04/02 03:48:50;;;;;;;;;2.50;1.50;;;;;13.02;63.42;100915.91;2063017;28;44883;-62
2023/04/02 03:50:11;;;;;;;;;3.00;3.00;;;;;13.00;63.27;100919.53;2063181;28;44790;-61
2023/04/02 03:51:18;;;;;;;;;2.75;2.75;;;;;12.96;63.24;100916.09;2066597;28;44945;-60
2023/04/02 03:52:25;;;;;;;;;2.00;2.00;;;;;12.95;63.42;100920.50;2070646;28;44866;-62
2023/04/02 03:53:28;;;;;;;;;2.00;1.25;;;;;12.94;63.46;100918.78;2054779;28;45003;-61
2023/04/02 03:54:29;;;;;;;;;2.75;2.75;;;;;12.94;63.34;100923.22;2077841;28;44958;-61
2023/04/02 03:55:34;;;;;;;;;3.00;3.00;;;;;12.94;63.20;100926.75;2096961;28;44982;-61
2023/04/02 03:56:40;;;;;;;;;3.75;3.75;;;;;12.93;63.33;100929.47;2093387;28;45165;-58
2023/04/02 03:57:52;;;;;;;;;3.50;3.50;;;;;12.91;63.46;100933.97;2086451;28;45021;-60
2023/04/02 03:59:04;;;;;;;;;4.80;3.80;;;;;12.90;63.28;100927.78;2098938;27;44917;-60
2023/04/02 04:00:15;;;;;;;;;6.50;5.00;;;;;12.89;63.22;100928.69;2113752;27;44853;-60
2023/04/02 04:01:25;;;;;;;;;3.25;3.25;;;;;12.88;63.09;100926.06;2111886;27;45064;-60
2023/04/02 04:02:25;;;;;;;;;4.00;4.00;;;;;12.88;63.15;100929.63;2112754;27;44868;-60
2023/04/02 04:03:35;;;;;;;;;3.67;3.67;;;;;12.89;63.21;100927.81;2113717;27;44937;-62
2023/04/02 04:04:40;;;;;;;;;5.00;4.00;;;;;12.89;63.22;100935.81;2110013;27;44848;-60
2023/04/02 04:05:49;;;;;;;;;4.00;4.00;;;;;12.88;63.22;100934.06;2110128;27;44986;-60
2023/04/02 04:06:51;;;;;;;;;4.40;4.40;;;;;12.87;62.82;100941.19;2113513;27;44868;-62
2023/04/02 04:07:58;;;;;;;;;4.00;3.80;;;;;12.86;62.94;100933.25;2105030;28;44829;-60
2023/04/02 04:09:04;;;;;;;;;5.00;4.00;;;;;12.84;62.98;100935.09;2106588;27;44967;-61
2023/04/02 04:10:08;;;;;;;;;4.80;4.00;;;;;12.81;63.08;100941.34;2107385;27;44896;-62
2023/04/02 04:11:14;;;;;;;;;8.50;4.50;;;;;12.80;63.24;100946.72;2110711;27;44810;-60
2023/04/02 04:12:27;;;;;;;;;3.00;3.00;;;;;12.79;63.28;100940.50;2101274;28;44829;-60
2023/04/02 04:13:43;;;;;;;;;5.00;5.00;;;;;12.79;63.41;100940.50;2105088;27;44835;-61
2023/04/02 04:14:51;;;;;;;;;5.60;5.00;;;;;12.81;63.35;100949.31;2105091;28;44802;-61
2023/04/02 04:16:09;;;;;;;;;5.00;5.00;;;;;12.82;63.20;100943.09;2107097;27;44778;-61
2023/04/02 04:17:23;;;;;;;;;6.00;5.00;;;;;12.83;63.23;100949.28;2109825;27;44935;-60
2023/04/02 04:18:39;;;;;;;;;5.00;5.00;;;;;12.84;63.31;100945.72;2110597;27;44951;-61
2023/04/02 04:19:45;;;;;;;;;5.40;5.40;;;;;12.85;63.10;100947.47;2113444;27;44836;-61
2023/04/02 04:20:55;;;;;;;;;6.40;5.00;;;;;12.85;62.96;100947.47;2106108;27;44903;-60
2023/04/02 04:22:09;;;;;;;;;5.00;5.00;;;;;12.84;62.89;100951.06;2106659;27;44894;-61
2023/04/02 04:23:18;;;;;;;;;3.40;3.40;;;;;12.84;63.02;100945.72;2111275;27;44859;-64
2023/04/02 04:24:22;;;;;;;;;6.00;6.00;;;;;12.83;62.91;100959.94;2104741;28;44852;-61
2023/04/02 04:25:33;;;;;;;;;7.00;4.80;;;;;12.80;62.83;100955.56;2101083;27;44924;-61
2023/04/02 04:26:38;;;;;;;;;7.40;7.40;;;;;12.80;62.83;100965.34;2110003;27;44868;-61
2023/04/02 04:27:44;;;;;;;;;6.00;5.75;;;;;12.79;62.75;100960.94;2113886;27;45016;-60
2023/04/02 04:29:18;;;;;;;;;5.25;5.00;;;;;12.79;62.73;100967.16;2110351;27;44826;-61
2023/04/02 04:30:33;;;;;;;;;7.25;7.25;;;;;12.79;62.65;100968.94;2091912;28;45038;-61
2023/04/02 04:31:45;;;;;;;;;6.00;5.80;;;;;12.79;62.62;100968.94;2096074;28;44911;-60
2023/04/02 04:32:57;;;;;;;;;5.00;5.00;;;;;12.79;62.76;100967.16;2104193;28;44858;-61
2023/04/02 04:34:05;;;;;;;;;8.80;5.60;;;;;12.79;62.56;100968.94;2104849;28;44851;-58
2023/04/02 04:35:20;;;;;;;;;9.00;7.00;;;;;12.76;62.70;100969.03;2104472;28;44952;-59
2023/04/02 04:36:46;;;;;;;;;6.80;6.60;;;;;12.74;62.83;100970.84;2100167;28;44791;-60
2023/04/02 04:37:52;;;;;;;;;7.00;7.00;;;;;12.73;62.70;100972.66;2096052;28;44978;-59
2023/04/02 04:38:58;;;;;;;;;10.25;8.75;;;;;12.75;62.75;100978.81;2096491;28;44852;-61
2023/04/02 04:40:25;;;;;;;;;8.50;7.25;;;;;12.77;63.14;100978.75;2102576;28;44898;-61
2023/04/02 04:41:30;;;;;;;;;3.00;3.00;;;;;12.77;62.74;100974.31;2070392;28;44846;-61
2023/04/02 04:42:35;;;;;;;;;7.50;7.50;;;;;12.79;62.77;100982.25;2069742;28;44975;-60
2023/04/02 04:43:51;;;;;;;;;8.00;7.25;;;;;12.79;62.75;100977.78;2062687;28;44863;-61
2023/04/02 04:45:12;;;;;;;;;6.00;4.33;;;;;12.79;62.50;100984.91;2068405;28;45354;-62
2023/04/02 04:46:22;;;;;;;;;10.00;6.75;;;;;12.78;62.93;100981.38;2070458;28;45103;-60
2023/04/02 04:47:46;;;;;;;;;7.25;6.75;;;;;12.79;62.66;100980.47;2071030;28;44899;-61
2023/04/02 04:49:10;;;;;;;;;8.25;8.25;;;;;12.80;62.71;100990.19;2062809;28;44910;-61
2023/04/02 04:50:34;;;;;;;;;6.00;6.00;;;;;12.80;62.61;100989.31;2071117;28;44962;-61
2023/04/02 04:51:45;;;;;;;;;6.75;5.00;;;;;12.80;62.55;100989.31;2030282;29;44866;-61
2023/04/02 04:52:45;;;;;;;;;5.75;5.75;;;;;12.80;62.50;100997.31;2040929;28;45494;-61
2023/04/02 04:53:49;;;;;;;;;6.00;5.75;;;;;12.81;62.55;100993.72;2041041;28;45178;-60
2023/04/02 04:54:50;;;;;;;;;7.75;7.75;;;;;12.81;62.71;100997.28;2030647;29;45976;-61
2023/04/02 04:56:03;;;;;;;;;7.00;7.00;;;;;12.81;62.38;100996.41;2035601;28;44781;-59
2023/04/02 04:57:06;;;;;;;;;8.75;8.00;;;;;12.79;62.46;100999.09;2022406;29;45242;-60
2023/04/02 04:58:26;;;;;;;;;6.25;5.50;;;;;12.78;62.41;101004.47;2030078;29;45982;-60
2023/04/02 04:59:34;;;;;;;;;8.20;7.00;;;;;12.75;62.27;101000.09;2030464;28;44892;-59
2023/04/02 05:00:54;;;;;;;;;6.00;6.00;;;;;12.75;62.61;101005.44;2027691;28;45014;-61
2023/04/02 05:01:58;;;;;;;;;7.00;6.25;;;;;12.78;62.59;101007.13;2030259;29;44813;-60
2023/04/02 05:03:08;;;;;;;;;7.80;7.20;;;;;12.78;62.48;101001.81;2030289;29;44894;-60
2023/04/02 05:04:19;;;;;;;;;7.80;6.00;;;;;12.78;62.51;101009.78;2030226;29;44852;-59
2023/04/02 05:05:30;;;;;;;;;9.20;8.60;;;;;12.78;62.54;101013.34;2030115;28;45064;-60
2023/04/02 05:06:39;;;;;;;;;5.20;4.80;;;;;12.77;62.63;101011.59;2029975;29;44908;-61
2023/04/02 05:07:47;;;;;;;;;8.40;8.20;;;;;12.76;62.54;101019.63;2030360;28;44957;-59
2023/04/02 05:08:52;;;;;;;;;8.60;7.80;;;;;12.74;62.88;101017.00;2030296;28;44860;-60
2023/04/02 05:10:19;;;;;;;;;9.80;9.80;;;;;12.72;62.54;101013.50;2029812;29;45127;-59
2023/04/02 05:11:32;;;;;;;;;8.00;8.00;;;;;12.71;62.55;101016.22;2030335;29;45493;-59
2023/04/02 05:13:00;;;;;;;;;7.80;7.80;;;;;12.70;62.60;101027.75;2030230;29;44955;-62
2023/04/02 05:14:05;;;;;;;;;10.60;9.00;;;;;12.66;62.51;101033.16;2030248;29;44902;-60
2023/04/02 05:15:11;;;;;;;;;10.60;8.80;;;;;12.65;62.46;101022.56;2030574;29;44976;-62
2023/04/02 05:16:34;;;;;;;;;10.40;8.20;;;;;12.62;62.63;101030.63;2029939;29;44968;-62
2023/04/02 05:17:43;;;;;;;;;7.00;7.00;;;;;12.61;62.65;101034.22;2030381;29;45584;-61
2023/04/02 05:18:58;;;;;;;;;11.60;8.60;;;;;12.60;62.26;101036.00;2030457;29;44975;-60
2023/04/02 05:20:25;;;;;;;;;8.60;7.00;;;;;12.58;62.61;101035.16;2058361;28;45027;-61